createdAt,value
2023-05-06T00:00:22.688Z,15.10
2023-05-06T00:02:25.870Z,15.00
2023-05-06T00:04:28.144Z,15.00
2023-05-06T00:06:29.845Z,15.00
2023-05-06T00:08:31.639Z,14.90
2023-05-06T00:10:33.387Z,14.90
2023-05-06T00:12:35.065Z,14.90
2023-05-06T00:14:36.672Z,14.90
2023-05-06T00:16:38.343Z,14.90
2023-05-06T00:18:41.081Z,14.90
2023-05-06T00:20:42.899Z,14.90
2023-05-06T00:22:44.582Z,14.90
2023-05-06T00:24:46.214Z,14.90
2023-05-06T00:26:47.850Z,14.80
2023-05-06T00:28:49.445Z,14.70
2023-05-06T00:30:51.251Z,14.80
2023-05-06T00:32:52.889Z,14.80
2023-05-06T00:34:54.706Z,14.80
2023-05-06T00:36:56.366Z,14.70
2023-05-06T00:38:58.025Z,14.60
2023-05-06T00:40:59.723Z,14.60
2023-05-06T00:43:01.410Z,14.70
2023-05-06T00:45:04.081Z,14.60
2023-05-06T00:47:06.590Z,14.60
2023-05-06T00:49:08.298Z,14.60
2023-05-06T00:51:10.442Z,14.50
2023-05-06T00:53:12.421Z,14.40
2023-05-06T00:55:14.560Z,14.40
2023-05-06T00:57:16.289Z,14.40
2023-05-06T00:59:17.962Z,14.40
2023-05-06T01:01:22.803Z,14.40
2023-05-06T01:03:24.617Z,14.30
2023-05-06T01:05:29.699Z,14.20
2023-05-06T01:07:46.539Z,14.20
2023-05-06T01:09:57.306Z,14.20
2023-05-06T01:12:02.525Z,14.30
2023-05-06T01:14:08.850Z,14.30
2023-05-06T01:16:12.584Z,14.20
2023-05-06T01:18:16.985Z,14.20
2023-05-06T01:20:21.037Z,14.20
2023-05-06T01:22:23.277Z,14.20
2023-05-06T01:24:34.201Z,14.10
2023-05-06T01:26:35.879Z,14.00
2023-05-06T01:28:37.480Z,14.00
2023-05-06T01:30:45.319Z,14.00
2023-05-06T01:32:47.098Z,13.90
2023-05-06T01:35:04.216Z,13.90
2023-05-06T01:37:12.450Z,13.90
2023-05-06T01:39:28.518Z,13.90
2023-05-06T01:41:31.483Z,13.90
2023-05-06T01:43:37.804Z,13.90
2023-05-06T01:45:40.481Z,13.80
2023-05-06T01:47:42.270Z,13.80
2023-05-06T01:49:44.009Z,13.80
2023-05-06T01:51:49.274Z,13.90
2023-05-06T01:53:51.050Z,13.80
2023-05-06T01:55:52.737Z,13.80
2023-05-06T01:57:54.842Z,13.90
2023-05-06T01:59:56.623Z,13.90
2023-05-06T02:01:58.325Z,13.90
2023-05-06T02:04:00.285Z,13.90
2023-05-06T02:06:02.079Z,13.90
2023-05-06T02:08:03.726Z,13.90
2023-05-06T02:10:06.061Z,13.90
2023-05-06T02:12:07.691Z,13.90
2023-05-06T02:14:09.272Z,13.90
2023-05-06T02:16:10.921Z,13.90
2023-05-06T02:18:12.540Z,13.90
2023-05-06T02:20:14.239Z,13.90
2023-05-06T02:22:15.818Z,13.80
2023-05-06T02:24:17.565Z,13.90
2023-05-06T02:26:19.264Z,13.90
2023-05-06T02:28:20.936Z,13.90
2023-05-06T02:30:22.557Z,13.90
2023-05-06T02:32:24.293Z,13.90
2023-05-06T02:34:26.042Z,13.90
2023-05-06T02:36:27.687Z,13.90
2023-05-06T02:38:29.357Z,13.90
2023-05-06T02:40:30.994Z,14.00
2023-05-06T02:42:34.041Z,14.00
2023-05-06T02:44:35.732Z,14.00
2023-05-06T02:46:37.775Z,13.90
2023-05-06T02:48:39.420Z,13.80
2023-05-06T02:50:41.208Z,13.80
2023-05-06T02:52:42.940Z,13.90
2023-05-06T02:54:44.660Z,13.80
2023-05-06T02:56:46.381Z,13.80
2023-05-06T02:58:49.816Z,13.70
2023-05-06T03:00:51.751Z,13.70
2023-05-06T03:02:53.482Z,13.60
2023-05-06T03:04:55.214Z,13.60
2023-05-06T03:06:57.343Z,13.50
2023-05-06T03:08:58.952Z,13.60
2023-05-06T03:11:00.713Z,13.60
2023-05-06T03:13:02.457Z,13.60
2023-05-06T03:15:04.318Z,13.60
2023-05-06T03:17:06.067Z,13.50
2023-05-06T03:19:07.665Z,13.50
2023-05-06T03:21:09.373Z,13.50
2023-05-06T03:23:10.964Z,13.40
2023-05-06T03:25:12.706Z,13.40
2023-05-06T03:27:14.532Z,13.40
2023-05-06T03:29:16.261Z,13.40
2023-05-06T03:31:17.865Z,13.40
2023-05-06T03:33:19.643Z,13.40
2023-05-06T03:35:21.290Z,13.40
2023-05-06T03:37:22.878Z,13.40
2023-05-06T03:39:24.652Z,13.40
2023-05-06T03:41:26.410Z,13.40
2023-05-06T03:43:28.043Z,13.40
2023-05-06T03:45:29.858Z,13.30
2023-05-06T03:47:31.525Z,13.20
2023-05-06T03:49:33.314Z,13.20
2023-05-06T03:51:35.606Z,13.20
2023-05-06T03:53:37.553Z,13.10
2023-05-06T03:55:39.757Z,13.00
2023-05-06T03:57:41.454Z,13.00
2023-05-06T03:59:43.413Z,12.90
2023-05-06T04:01:45.090Z,12.90
2023-05-06T04:03:46.871Z,12.90
2023-05-06T04:05:49.906Z,12.90
2023-05-06T04:07:51.636Z,12.90
2023-05-06T04:09:53.508Z,12.90
2023-05-06T04:11:55.843Z,13.00
2023-05-06T04:13:57.534Z,13.00
2023-05-06T04:15:59.169Z,13.00
2023-05-06T04:18:01.461Z,13.10
2023-05-06T04:20:11.310Z,13.10
2023-05-06T04:22:13.178Z,13.30
2023-05-06T04:24:18.059Z,13.20
2023-05-06T04:26:19.660Z,13.30
2023-05-06T04:28:21.747Z,13.20
2023-05-06T04:30:23.521Z,13.30
2023-05-06T04:32:25.384Z,13.30
2023-05-06T04:34:28.842Z,13.30
2023-05-06T04:36:30.692Z,13.30
2023-05-06T04:38:32.839Z,13.40
2023-05-06T04:40:35.228Z,13.40
2023-05-06T04:42:36.982Z,13.50
2023-05-06T04:44:38.566Z,13.40
2023-05-06T04:46:40.540Z,13.50
2023-05-06T04:48:42.221Z,13.50
2023-05-06T04:50:44.064Z,13.60
2023-05-06T04:52:45.749Z,13.60
2023-05-06T04:54:47.421Z,13.60
2023-05-06T04:56:49.008Z,13.60
2023-05-06T04:58:50.710Z,13.50
2023-05-06T05:00:52.335Z,13.60
2023-05-06T05:02:53.982Z,13.60
2023-05-06T05:04:55.756Z,13.50
2023-05-06T05:06:58.637Z,13.60
2023-05-06T05:09:00.226Z,13.50
2023-05-06T05:11:01.894Z,13.60
2023-05-06T05:13:03.635Z,13.60
2023-05-06T05:15:05.932Z,13.70
2023-05-06T05:17:07.646Z,13.60
2023-05-06T05:19:09.626Z,13.60
2023-05-06T05:21:11.381Z,13.70
2023-05-06T05:23:13.031Z,13.60
2023-05-06T05:25:14.909Z,13.70
2023-05-06T05:27:16.840Z,13.80
2023-05-06T05:29:18.528Z,13.80
2023-05-06T05:31:20.224Z,13.90
2023-05-06T05:33:21.895Z,14.00
2023-05-06T05:35:23.674Z,13.90
2023-05-06T05:37:25.545Z,13.90
2023-05-06T05:39:27.143Z,14.00
2023-05-06T05:41:28.831Z,14.00
2023-05-06T05:43:31.405Z,14.10
2023-05-06T05:45:32.976Z,14.20
2023-05-06T05:47:34.763Z,14.20
2023-05-06T05:49:36.518Z,14.20
2023-05-06T05:51:38.093Z,14.10
2023-05-06T05:53:39.804Z,14.10
2023-05-06T05:55:41.454Z,14.20
2023-05-06T05:57:43.137Z,14.20
2023-05-06T05:59:44.895Z,14.30
2023-05-06T06:01:46.667Z,14.40
2023-05-06T06:03:48.483Z,14.30
2023-05-06T06:05:52.867Z,14.30
2023-05-06T06:07:54.575Z,14.30
2023-05-06T06:09:56.311Z,14.30
2023-05-06T06:11:58.000Z,14.40
2023-05-06T06:13:59.697Z,14.60
2023-05-06T06:16:01.457Z,14.70
2023-05-06T06:18:03.236Z,14.70
2023-05-06T06:20:05.335Z,14.70
2023-05-06T06:22:07.129Z,14.70
2023-05-06T06:24:08.756Z,14.80
2023-05-06T06:26:12.363Z,14.70
2023-05-06T06:28:14.123Z,14.70
2023-05-06T06:30:15.914Z,14.80
2023-05-06T06:32:17.698Z,14.80
2023-05-06T06:34:19.328Z,14.80
2023-05-06T06:36:21.407Z,14.60
2023-05-06T06:38:23.081Z,14.70
2023-05-06T06:40:24.879Z,14.80
2023-05-06T06:42:27.327Z,14.70
2023-05-06T06:44:28.962Z,14.70
2023-05-06T06:46:30.951Z,14.70
2023-05-06T06:48:32.695Z,14.70
2023-05-06T06:50:34.348Z,14.70
2023-05-06T06:52:36.086Z,14.80
2023-05-06T06:54:38.785Z,14.70
2023-05-06T06:56:40.457Z,14.80
2023-05-06T06:58:42.338Z,14.80
2023-05-06T07:00:43.970Z,14.90
2023-05-06T07:02:48.092Z,15.00
2023-05-06T07:04:49.970Z,15.10
2023-05-06T07:06:51.817Z,15.20
2023-05-06T07:08:53.424Z,15.30
2023-05-06T07:10:55.509Z,15.40
2023-05-06T07:12:58.347Z,15.60
2023-05-06T07:15:00.259Z,15.70
2023-05-06T07:17:02.149Z,15.80
2023-05-06T07:19:03.957Z,15.90
2023-05-06T07:21:05.714Z,15.90
2023-05-06T07:23:07.364Z,16.00
2023-05-06T07:25:09.343Z,15.90
2023-05-06T07:27:11.135Z,15.80
2023-05-06T07:29:12.738Z,15.70
2023-05-06T07:31:16.009Z,15.90
2023-05-06T07:33:17.881Z,16.10
2023-05-06T07:35:19.587Z,16.30
2023-05-06T07:37:21.336Z,16.40
2023-05-06T07:39:22.997Z,16.40
2023-05-06T07:41:24.651Z,16.50
2023-05-06T07:43:26.746Z,16.50
2023-05-06T07:45:28.378Z,16.50
2023-05-06T07:47:31.568Z,16.50
2023-05-06T07:49:34.995Z,16.70
2023-05-06T07:51:36.839Z,16.80
2023-05-06T07:53:40.103Z,16.90
2023-05-06T07:55:41.808Z,16.90
2023-05-06T07:57:43.559Z,16.90
2023-05-06T07:59:49.293Z,17.00
2023-05-06T08:01:51.056Z,17.00
2023-05-06T08:03:52.827Z,16.80
2023-05-06T08:05:55.333Z,17.00
2023-05-06T08:07:57.002Z,17.00
2023-05-06T08:09:58.626Z,17.00
2023-05-06T08:12:00.351Z,17.10
2023-05-06T08:14:02.183Z,17.00
2023-05-06T08:16:04.309Z,17.00
2023-05-06T08:18:21.075Z,17.00
2023-05-06T08:20:24.340Z,17.10
2023-05-06T08:22:25.930Z,17.20
2023-05-06T08:24:28.227Z,17.30
2023-05-06T08:26:30.063Z,17.20
2023-05-06T08:28:32.172Z,17.10
2023-05-06T08:30:33.804Z,17.00
2023-05-06T08:32:35.498Z,17.00
2023-05-06T08:34:37.196Z,16.90
2023-05-06T08:36:38.940Z,17.00
2023-05-06T08:38:40.540Z,17.00
2023-05-06T08:40:43.790Z,17.10
2023-05-06T08:42:46.484Z,17.10
2023-05-06T08:44:48.312Z,17.10
2023-05-06T08:46:50.142Z,17.10
2023-05-06T08:48:52.843Z,17.10
2023-05-06T08:50:54.717Z,17.10
2023-05-06T08:52:56.501Z,17.20
2023-05-06T08:55:01.437Z,17.50
2023-05-06T08:57:05.341Z,17.70
2023-05-06T08:59:09.255Z,17.90
2023-05-06T09:01:11.148Z,18.00
2023-05-06T09:03:13.570Z,18.10
2023-05-06T09:05:16.344Z,18.30
2023-05-06T09:07:18.612Z,18.30
2023-05-06T09:09:20.322Z,18.30
2023-05-06T09:11:23.321Z,17.90
2023-05-06T09:13:24.912Z,17.90
2023-05-06T09:15:27.110Z,18.00
2023-05-06T09:17:31.761Z,18.20
2023-05-06T09:19:37.901Z,18.20
2023-05-06T09:21:40.715Z,18.00
2023-05-06T09:23:42.406Z,18.00
2023-05-06T09:25:45.785Z,18.10
2023-05-06T09:27:47.505Z,18.20
2023-05-06T09:30:05.526Z,18.10
2023-05-06T09:32:07.954Z,18.20
2023-05-06T09:34:09.807Z,18.30
2023-05-06T09:36:13.441Z,18.30
2023-05-06T09:38:15.112Z,18.00
2023-05-06T09:40:16.802Z,18.20
2023-05-06T09:42:18.427Z,18.40
2023-05-06T09:44:22.189Z,18.70
2023-05-06T09:46:24.922Z,18.90
2023-05-06T09:48:29.262Z,19.00
2023-05-06T09:50:32.504Z,19.00
2023-05-06T09:52:34.181Z,18.90
2023-05-06T09:54:35.958Z,19.10
2023-05-06T09:56:37.835Z,18.70
2023-05-06T09:58:39.690Z,18.90
2023-05-06T10:00:41.519Z,19.20
2023-05-06T10:02:47.890Z,19.40
2023-05-06T10:04:50.222Z,19.80
2023-05-06T10:06:53.700Z,19.90
2023-05-06T10:08:55.869Z,20.10
2023-05-06T10:10:58.388Z,20.10
2023-05-06T10:13:02.241Z,20.00
2023-05-06T10:15:04.507Z,20.00
2023-05-06T10:17:08.683Z,20.10
2023-05-06T10:19:11.108Z,20.30
2023-05-06T10:21:16.249Z,20.00
2023-05-06T10:23:18.066Z,20.30
2023-05-06T10:25:25.817Z,20.60
2023-05-06T10:27:28.038Z,20.30
2023-05-06T10:29:29.789Z,20.00
2023-05-06T10:31:32.584Z,19.70
2023-05-06T10:33:34.508Z,19.80
2023-05-06T10:35:42.351Z,20.00
2023-05-06T10:37:45.455Z,20.50
2023-05-06T10:39:47.432Z,20.80
2023-05-06T10:41:49.305Z,20.70
2023-05-06T10:43:56.599Z,21.00
2023-05-06T10:46:09.201Z,21.60
2023-05-06T10:48:11.017Z,22.00
2023-05-06T10:50:22.470Z,21.60
2023-05-06T10:52:24.076Z,21.00
2023-05-06T10:54:25.866Z,20.00
2023-05-06T10:56:27.965Z,20.80
2023-05-06T10:58:35.998Z,21.10
2023-05-06T11:00:38.054Z,20.90
2023-05-06T11:02:40.593Z,20.60
2023-05-06T11:04:42.392Z,21.10
2023-05-06T11:06:51.047Z,21.40
2023-05-06T11:08:57.194Z,21.80
2023-05-06T11:10:58.941Z,21.50
2023-05-06T11:13:36.105Z,21.30
2023-05-06T11:15:39.502Z,21.50
2023-05-06T11:17:41.168Z,21.40
2023-05-06T11:19:42.855Z,21.10
2023-05-06T11:21:44.561Z,21.40
2023-05-06T11:23:49.086Z,22.70
2023-05-06T11:25:51.551Z,23.80
2023-05-06T11:27:55.760Z,24.50
2023-05-06T11:29:57.344Z,24.80
2023-05-06T11:31:59.152Z,24.00
2023-05-06T11:34:02.370Z,23.50
2023-05-06T11:36:04.844Z,23.30
2023-05-06T11:38:06.431Z,24.10
2023-05-06T11:40:16.988Z,25.60
2023-05-06T11:44:28.727Z,26.60
2023-05-06T11:46:32.221Z,26.60
2023-05-06T11:48:33.874Z,26.40
2023-05-06T11:50:35.433Z,27.20
2023-05-06T11:52:37.065Z,26.90
2023-05-06T11:54:39.753Z,27.40
2023-05-06T11:56:43.300Z,27.70
2023-05-06T11:58:46.271Z,25.80
2023-05-06T12:00:53.379Z,25.40
2023-05-06T12:02:56.314Z,24.00
2023-05-06T12:04:58.333Z,24.30
2023-05-06T12:07:00.169Z,23.90
2023-05-06T12:09:03.644Z,23.40
2023-05-06T12:11:06.295Z,22.80
2023-05-06T12:13:08.204Z,22.50
2023-05-06T12:15:10.541Z,22.80
2023-05-06T12:17:12.777Z,22.20
2023-05-06T12:19:18.349Z,21.70
2023-05-06T12:21:23.865Z,21.40
2023-05-06T12:23:25.696Z,21.70
2023-05-06T12:25:27.473Z,21.80
2023-05-06T12:27:32.935Z,22.10
2023-05-06T12:29:34.736Z,21.70
2023-05-06T12:31:36.750Z,23.80
2023-05-06T12:33:45.408Z,26.40
2023-05-06T12:35:47.125Z,28.20
2023-05-06T12:37:48.729Z,29.00
2023-05-06T12:39:50.431Z,27.40
2023-05-06T12:41:53.842Z,25.50
2023-05-06T12:43:55.594Z,26.40
2023-05-06T12:46:07.470Z,27.50
2023-05-06T12:48:15.658Z,28.30
2023-05-06T12:50:30.320Z,29.50
2023-05-06T12:52:32.200Z,28.50
2023-05-06T12:54:33.996Z,26.80
2023-05-06T12:56:35.718Z,26.80
2023-05-06T12:58:38.113Z,28.60
2023-05-06T13:00:39.703Z,29.30
2023-05-06T13:02:41.587Z,29.60
2023-05-06T13:04:44.251Z,29.00
2023-05-06T13:06:46.316Z,27.60
2023-05-06T13:08:47.960Z,26.90
2023-05-06T13:10:49.610Z,26.60
2023-05-06T13:12:51.288Z,25.60
2023-05-06T13:14:52.944Z,24.80
2023-05-06T13:16:54.677Z,26.40
2023-05-06T13:18:56.423Z,27.60
2023-05-06T13:21:00.133Z,27.30
2023-05-06T13:23:01.719Z,27.40
2023-05-06T13:25:03.436Z,26.30
2023-05-06T13:27:05.115Z,25.30
2023-05-06T13:29:06.888Z,24.50
2023-05-06T13:31:08.616Z,23.80
2023-05-06T13:33:10.439Z,24.20
2023-05-06T13:35:12.321Z,24.50
2023-05-06T13:37:14.159Z,24.20
2023-05-06T13:39:18.570Z,24.10
2023-05-06T13:41:21.304Z,24.10
2023-05-06T13:43:26.131Z,24.00
2023-05-06T13:45:27.702Z,24.20
2023-05-06T13:47:29.294Z,24.10
2023-05-06T13:49:30.948Z,24.20
2023-05-06T13:51:33.511Z,24.00
2023-05-06T13:53:35.550Z,24.20
2023-05-06T13:55:37.193Z,24.40
2023-05-06T13:57:38.902Z,24.60
2023-05-06T13:59:40.864Z,24.20
2023-05-06T14:01:43.156Z,24.80
2023-05-06T14:03:44.905Z,25.50
2023-05-06T14:05:46.497Z,24.40
2023-05-06T14:07:48.083Z,24.60
2023-05-06T14:09:49.668Z,24.90
2023-05-06T14:11:51.306Z,25.80
2023-05-06T14:13:55.053Z,25.60
2023-05-06T14:15:56.718Z,25.70
2023-05-06T14:17:58.702Z,26.00
2023-05-06T14:20:00.518Z,26.40
2023-05-06T14:22:02.106Z,25.10
2023-05-06T14:24:06.139Z,25.30
2023-05-06T14:26:09.191Z,25.50
2023-05-06T14:28:11.125Z,25.30
2023-05-06T14:30:13.025Z,24.50
2023-05-06T14:32:14.738Z,25.20
2023-05-06T14:34:16.403Z,25.70
2023-05-06T14:36:18.866Z,25.20
2023-05-06T14:38:20.622Z,25.90
2023-05-06T14:40:22.262Z,26.40
2023-05-06T14:42:23.941Z,26.50
2023-05-06T14:44:25.561Z,26.60
2023-05-06T14:46:29.436Z,25.70
2023-05-06T14:48:31.994Z,25.20
2023-05-06T14:50:34.124Z,25.00
2023-05-06T14:52:36.374Z,26.10
2023-05-06T14:54:42.128Z,26.10
2023-05-06T14:56:49.221Z,26.80
2023-05-06T14:58:50.961Z,27.20
2023-05-06T15:00:52.670Z,27.20
2023-05-06T15:02:54.553Z,27.10
2023-05-06T15:04:56.327Z,27.50
2023-05-06T15:06:58.178Z,27.10
2023-05-06T15:09:00.467Z,27.60
2023-05-06T15:11:04.283Z,27.70
2023-05-06T15:13:07.004Z,28.50
2023-05-06T15:15:09.120Z,28.60
2023-05-06T15:17:10.933Z,28.80
2023-05-06T15:19:12.735Z,28.90
2023-05-06T15:21:14.552Z,29.20
2023-05-06T15:23:16.382Z,29.20
2023-05-06T15:25:33.528Z,29.40
2023-05-06T15:27:37.320Z,28.90
2023-05-06T15:29:39.315Z,28.50
2023-05-06T15:31:43.581Z,28.60
2023-05-06T15:33:45.343Z,28.90
2023-05-06T15:35:47.042Z,29.10
2023-05-06T15:37:48.860Z,29.10
2023-05-06T15:39:50.658Z,28.70
2023-05-06T15:41:52.290Z,29.20
2023-05-06T15:43:54.544Z,28.00
2023-05-06T15:45:57.634Z,26.80
2023-05-06T15:48:00.544Z,25.60
2023-05-06T15:50:06.855Z,25.90
2023-05-06T15:52:12.819Z,24.70
2023-05-06T15:54:16.623Z,25.10
2023-05-06T15:56:19.158Z,25.00
2023-05-06T15:58:21.063Z,25.10
2023-05-06T16:00:22.743Z,25.50
2023-05-06T16:02:27.315Z,25.40
2023-05-06T16:04:29.966Z,25.90
2023-05-06T16:06:31.902Z,25.70
2023-05-06T16:08:33.846Z,24.80
2023-05-06T16:10:35.617Z,24.50
2023-05-06T16:12:37.379Z,24.90
2023-05-06T16:14:39.117Z,25.10
2023-05-06T16:16:41.034Z,25.10
2023-05-06T16:18:42.682Z,24.70
2023-05-06T16:20:44.441Z,24.10
2023-05-06T16:22:49.742Z,24.50
2023-05-06T16:24:51.451Z,24.20
2023-05-06T16:26:54.885Z,24.20
2023-05-06T16:28:56.507Z,24.00
2023-05-06T16:30:58.156Z,24.00
2023-05-06T16:32:59.812Z,23.60
2023-05-06T16:35:01.622Z,23.40
2023-05-06T16:37:03.370Z,23.30
2023-05-06T16:39:08.000Z,23.30
2023-05-06T16:41:09.701Z,23.50
2023-05-06T16:43:11.625Z,23.60
2023-05-06T16:45:13.382Z,23.40
2023-05-06T16:47:15.420Z,23.40
2023-05-06T16:49:19.377Z,23.40
2023-05-06T16:51:21.069Z,23.60
2023-05-06T16:53:22.761Z,23.30
2023-05-06T16:55:24.565Z,23.10
2023-05-06T16:57:26.202Z,22.90
2023-05-06T16:59:27.817Z,22.70
2023-05-06T17:01:29.586Z,23.10
2023-05-06T17:03:32.072Z,22.90
2023-05-06T17:05:33.771Z,22.60
2023-05-06T17:07:35.481Z,22.80
2023-05-06T17:09:37.629Z,22.60
2023-05-06T17:11:39.474Z,22.40
2023-05-06T17:13:41.223Z,22.30
2023-05-06T17:15:42.897Z,22.60
2023-05-06T17:17:44.601Z,22.20
2023-05-06T17:19:46.306Z,22.40
2023-05-06T17:21:47.911Z,21.90
2023-05-06T17:23:51.350Z,21.70
2023-05-06T17:25:55.355Z,22.00
2023-05-06T17:27:57.020Z,21.50
2023-05-06T17:29:59.696Z,21.50
2023-05-06T17:32:01.298Z,21.30
2023-05-06T17:34:03.786Z,21.10
2023-05-06T17:36:05.692Z,21.20
2023-05-06T17:38:07.865Z,21.10
2023-05-06T17:40:09.776Z,20.90
2023-05-06T17:42:11.522Z,20.70
2023-05-06T17:44:13.162Z,20.80
2023-05-06T17:46:15.361Z,20.40
2023-05-06T17:48:17.993Z,20.50
2023-05-06T17:50:19.778Z,20.50
2023-05-06T17:52:21.665Z,20.50
2023-05-06T17:54:23.371Z,20.20
2023-05-06T17:56:25.142Z,20.30
2023-05-06T17:58:26.734Z,20.00
2023-05-06T18:00:28.327Z,20.20
2023-05-06T18:02:30.041Z,20.00
2023-05-06T18:04:31.826Z,19.90
2023-05-06T18:06:33.505Z,19.90
2023-05-06T18:08:35.176Z,19.90
2023-05-06T18:10:36.847Z,19.90
2023-05-06T18:12:38.625Z,19.70
2023-05-06T18:14:40.297Z,19.80
2023-05-06T18:16:42.118Z,19.70
2023-05-06T18:18:43.817Z,19.50
2023-05-06T18:20:45.615Z,19.50
2023-05-06T18:22:47.254Z,19.50
2023-05-06T18:24:50.244Z,19.40
2023-05-06T18:26:51.936Z,19.20
2023-05-06T18:28:53.556Z,19.30
2023-05-06T18:30:55.234Z,19.20
2023-05-06T18:32:57.117Z,19.30
2023-05-06T18:34:58.826Z,19.10
2023-05-06T18:37:00.534Z,19.10
2023-05-06T18:39:02.770Z,19.00
2023-05-06T18:41:04.469Z,18.90
2023-05-06T18:43:08.031Z,19.00
2023-05-06T18:45:10.104Z,18.90
2023-05-06T18:47:12.313Z,19.00
2023-05-06T18:49:17.072Z,18.90
2023-05-06T18:51:18.778Z,18.80
2023-05-06T18:53:21.133Z,18.60
2023-05-06T18:55:22.852Z,18.50
2023-05-06T18:57:26.626Z,18.50
2023-05-06T18:59:28.307Z,18.30
2023-05-06T19:01:30.128Z,18.30
2023-05-06T19:03:33.191Z,18.10
2023-05-06T19:05:34.791Z,18.00
2023-05-06T19:07:36.507Z,17.80
2023-05-06T19:09:38.540Z,17.70
2023-05-06T19:11:40.325Z,17.80
2023-05-06T19:13:46.326Z,17.60
2023-05-06T19:15:48.127Z,17.80
2023-05-06T19:17:49.818Z,17.70
2023-05-06T19:19:51.589Z,17.70
2023-05-06T19:21:53.825Z,17.70
2023-05-06T19:24:00.850Z,17.50
2023-05-06T19:26:03.712Z,17.70
2023-05-06T19:28:06.389Z,17.40
2023-05-06T19:30:08.473Z,17.30
2023-05-06T19:32:10.269Z,17.50
2023-05-06T19:34:11.904Z,17.60
2023-05-06T19:36:13.557Z,17.60
2023-05-06T19:38:15.363Z,17.40
2023-05-06T19:40:18.894Z,17.30
2023-05-06T19:42:20.545Z,17.40
2023-05-06T19:44:22.160Z,17.40
2023-05-06T19:46:23.991Z,17.40
2023-05-06T19:48:25.893Z,17.40
2023-05-06T19:50:28.407Z,17.70
2023-05-06T19:52:31.296Z,17.40
2023-05-06T19:54:32.939Z,17.30
2023-05-06T19:56:34.604Z,17.30
2023-05-06T19:58:36.517Z,17.00
2023-05-06T20:00:38.530Z,17.00
2023-05-06T20:02:40.211Z,17.00
2023-05-06T20:04:45.223Z,17.10
2023-05-06T20:06:46.928Z,17.00
2023-05-06T20:08:48.588Z,17.00
2023-05-06T20:10:50.362Z,16.80
2023-05-06T20:12:52.148Z,16.70
2023-05-06T20:14:56.504Z,16.70
2023-05-06T20:16:58.456Z,16.50
2023-05-06T20:19:00.035Z,16.80
2023-05-06T20:21:01.717Z,16.60
2023-05-06T20:23:03.399Z,16.50
2023-05-06T20:25:09.542Z,16.60
2023-05-06T20:27:11.336Z,16.40
2023-05-06T20:29:12.947Z,16.50
2023-05-06T20:31:14.814Z,16.40
2023-05-06T20:33:16.583Z,16.40
2023-05-06T20:35:18.309Z,16.30
2023-05-06T20:37:20.131Z,16.30
2023-05-06T20:39:22.066Z,16.30
2023-05-06T20:41:23.709Z,16.50
2023-05-06T20:43:25.497Z,16.20
2023-05-06T20:45:27.668Z,16.40
2023-05-06T20:47:29.434Z,16.20
2023-05-06T20:49:31.130Z,16.20
2023-05-06T20:51:33.560Z,16.00
2023-05-06T20:53:35.350Z,16.10
2023-05-06T20:55:37.058Z,16.00
2023-05-06T20:57:41.702Z,16.00
2023-05-06T20:59:46.070Z,16.10
2023-05-06T21:01:47.799Z,16.10
2023-05-06T21:03:50.097Z,15.90
2023-05-06T21:05:52.098Z,15.90
2023-05-06T21:07:53.908Z,15.90
2023-05-06T21:09:55.657Z,15.80
2023-05-06T21:11:58.279Z,15.70
2023-05-06T21:14:00.028Z,15.80
2023-05-06T21:16:01.752Z,15.60
2023-05-06T21:18:03.476Z,15.60
2023-05-06T21:20:06.298Z,15.60
2023-05-06T21:22:10.910Z,15.70
2023-05-06T21:24:13.010Z,15.60
2023-05-06T21:26:15.607Z,15.50
2023-05-06T21:28:17.386Z,15.40
2023-05-06T21:30:19.071Z,15.40
2023-05-06T21:32:21.354Z,15.40
2023-05-06T21:34:23.497Z,15.50
2023-05-06T21:36:25.523Z,15.20
2023-05-06T21:38:28.133Z,15.30
2023-05-06T21:40:29.810Z,15.10
2023-05-06T21:42:31.582Z,15.20
2023-05-06T21:44:33.255Z,15.00
2023-05-06T21:46:35.188Z,15.10
2023-05-06T21:48:36.934Z,15.10
2023-05-06T21:50:38.792Z,15.30
2023-05-06T21:52:40.443Z,15.10
2023-05-06T21:54:42.084Z,15.20
2023-05-06T21:56:45.017Z,15.00
2023-05-06T21:58:46.744Z,15.20
2023-05-06T22:00:48.358Z,14.90
2023-05-06T22:02:50.159Z,14.90
2023-05-06T22:04:52.088Z,14.80
2023-05-06T22:06:53.740Z,14.80
2023-05-06T22:08:55.447Z,14.90
2023-05-06T22:10:57.937Z,14.90
2023-05-06T22:12:59.787Z,14.80
2023-05-06T22:15:01.584Z,14.90
2023-05-06T22:17:04.736Z,14.90
2023-05-06T22:19:06.822Z,14.90
2023-05-06T22:21:09.565Z,15.10
2023-05-06T22:23:12.320Z,15.20
2023-05-06T22:25:14.187Z,14.90
2023-05-06T22:27:15.900Z,15.00
2023-05-06T22:29:17.560Z,14.70
2023-05-06T22:31:20.636Z,14.70
2023-05-06T22:33:22.307Z,14.50
2023-05-06T22:35:23.965Z,14.60
2023-05-06T22:37:25.640Z,14.30
2023-05-06T22:39:27.354Z,14.40
2023-05-06T22:41:29.739Z,14.40
2023-05-06T22:43:31.417Z,14.20
2023-05-06T22:45:33.166Z,14.20
2023-05-06T22:47:34.903Z,14.30
2023-05-06T22:56:24.492Z,14.10
2023-05-06T22:58:26.093Z,14.20
2023-05-06T23:00:27.978Z,14.10
2023-05-06T23:02:29.710Z,14.00
2023-05-06T23:04:31.708Z,14.00
2023-05-06T23:06:33.303Z,13.90
2023-05-06T23:08:34.957Z,13.90
2023-05-06T23:10:36.657Z,14.20
2023-05-06T23:12:38.370Z,14.00
2023-05-06T23:14:40.057Z,14.00
2023-05-06T23:16:41.670Z,13.90
2023-05-06T23:18:43.330Z,13.80
2023-05-06T23:20:44.994Z,13.80
2023-05-06T23:22:46.740Z,13.80
2023-05-06T23:24:48.377Z,13.90
2023-05-06T23:29:06.586Z,13.80
2023-05-06T23:31:08.274Z,13.90
2023-05-06T23:33:09.972Z,13.90
2023-05-06T23:35:12.138Z,13.90
2023-05-06T23:37:13.937Z,14.00
2023-05-06T23:39:15.711Z,14.10
2023-05-06T23:41:17.339Z,14.10
2023-05-06T23:43:18.935Z,14.10
2023-05-06T23:45:20.799Z,14.10
2023-05-06T23:47:24.358Z,14.10
2023-05-06T23:49:26.132Z,14.10
2023-05-06T23:51:27.712Z,14.10
2023-05-06T23:53:29.453Z,14.10
2023-05-06T23:55:31.265Z,14.00
2023-05-06T23:57:32.878Z,14.10
2023-05-06T23:59:34.733Z,14.00
